De Berry, Texas
Current Conditions -  °F | °C
As of 7:55 AM on Saturday 22 Nov 2014 (Local Time) from KASL Reporting Station
Scattered Clouds Scattered Clouds  
Wind Chill: 53°   Ceiling: Unl
Heat Index: 53°   Visibility: 10mi
Dew Point: 49°   Wind: 6mph
Humidity: 87%   Direction: 150°SSE
Pressure: 30.15"   Gusts: NA
Location:  32.3°N, 94.17°W
Report Text: KASL 221355Z AUTO 15005KT 10SM SCT031 SCT100 12/10 A3015 RMK AO1 T01180097
Loading
Personal Weather Stations






























Interactive Weather Map New forecast layout! Learn more

10-Day Weather Forecast

Advertisements
Track Severe Weather on mobile